Time;durP1;ratioP1;P1;durP2;ratioP2;P2;SDS_P1;SDS_P2;PMS_P1;PMS_P2;Temp;Humidity;BMP_temperature;BMP_pressure;BME280_temperature;BME280_humidity;BME280_pressure;Samples;Min_cycle;Max_cycle;Signal;HPM_P1;HPM_P2
2021/12/24 00:02:00;;;;;;;;;;;11.30;56.20;;;;;;5102483;28;19973;-70
2021/12/24 00:04:26;;;;;;;;;;;11.30;56.20;;;;;;5102449;28;19908;-70
2021/12/24 00:06:52;;;;;;;;;;;11.30;56.20;;;;;;5102437;28;19919;-69
2021/12/24 00:09:23;;;;;;;;;;;11.30;56.30;;;;;;5102411;28;19908;-70
2021/12/24 00:11:56;;;;;;;;;;;11.30;56.30;;;;;;5102411;28;19911;-69
2021/12/24 00:14:24;;;;;;;;;;;11.30;56.30;;;;;;5102378;28;19915;-70
2021/12/24 00:16:53;;;;;;;;;;;11.20;56.30;;;;;;5102285;28;20295;-69
2021/12/24 00:19:37;;;;;;;;;;;11.20;56.30;;;;;;5102525;28;19993;-70
2021/12/24 00:35:33;;;;;;;;;;;11.30;56.10;;;;;;5101954;28;19974;-70
2021/12/24 00:38:03;;;;;;;;;;;11.30;56.10;;;;;;5101551;28;19965;-70
2021/12/24 00:40:34;;;;;;;;;;;11.30;56.00;;;;;;5101869;28;19979;-69
2021/12/24 00:43:00;;;;;;;;;;;11.30;56.10;;;;;;5101092;28;19915;-69
2021/12/24 00:45:27;;;;;;;;;;;11.30;56.20;;;;;;5101683;28;19907;-70
2021/12/24 00:47:53;;;;;;;;;;;11.30;56.20;;;;;;5101746;28;19935;-68
2021/12/24 00:50:22;;;;;;;;;;;11.20;56.20;;;;;;5101681;28;20395;-69
2021/12/24 00:55:17;;;;;;;;;;;11.30;56.20;;;;;;5101580;28;19908;-69
2021/12/24 00:57:45;;;;;;;;;;;11.20;56.20;;;;;;5101481;28;20221;-70
2021/12/24 01:00:16;;;;;;;;;;;11.20;56.30;;;;;;5101415;28;19941;-70
2021/12/24 01:02:43;;;;;;;;;;;11.30;56.30;;;;;;5083206;28;20225;-70
2021/12/24 01:05:08;;;;;;;;;;;11.20;56.30;;;;;;5101219;28;19983;-69
2021/12/24 01:07:34;;;;;;;;;;;11.20;56.30;;;;;;5101270;28;19908;-69
2021/12/24 01:10:00;;;;;;;;;;;11.20;56.30;;;;;;5101260;28;20074;-70
2021/12/24 01:12:26;;;;;;;;;;;11.30;56.30;;;;;;5101195;28;19903;-70
2021/12/24 01:14:52;;;;;;;;;;;11.20;56.20;;;;;;5101146;28;20188;-71
2021/12/24 01:17:33;;;;;;;;;;;11.20;56.10;;;;;;5101194;28;19908;-69
2021/12/24 01:20:07;;;;;;;;;;;11.30;56.20;;;;;;5101131;28;19967;-69
2021/12/24 01:28:01;;;;;;;;;;;11.20;56.10;;;;;;5101188;28;19915;-69
2021/12/24 01:38:36;;;;;;;;;;;11.20;56.80;;;;;;5100852;28;19926;-70
2021/12/24 01:41:08;;;;;;;;;;;11.20;56.20;;;;;;5100792;28;20477;-69
2021/12/24 01:43:34;;;;;;;;;;;11.20;56.30;;;;;;5100738;28;20003;-69
2021/12/24 01:46:00;;;;;;;;;;;11.20;56.40;;;;;;5100542;28;20192;-69
2021/12/24 01:48:26;;;;;;;;;;;11.20;56.40;;;;;;5100660;28;19919;-69
2021/12/24 01:50:53;;;;;;;;;;;11.20;56.40;;;;;;5100573;28;19908;-69
2021/12/24 01:53:19;;;;;;;;;;;11.20;56.20;;;;;;5100234;28;20081;-70
2021/12/24 01:55:47;;;;;;;;;;;11.20;56.10;;;;;;5099839;28;19900;-69
2021/12/24 01:58:13;;;;;;;;;;;11.20;56.10;;;;;;5100453;28;19908;-70
2021/12/24 02:00:42;;;;;;;;;;;11.20;56.10;;;;;;5100398;28;19975;-70
2021/12/24 02:03:09;;;;;;;;;;;11.20;56.00;;;;;;5100469;28;19907;-70
2021/12/24 02:05:35;;;;;;;;;;;11.20;56.10;;;;;;5100108;28;19962;-69
2021/12/24 02:08:02;;;;;;;;;;;11.20;56.20;;;;;;5100234;28;19900;-70
2021/12/24 02:10:28;;;;;;;;;;;11.20;56.30;;;;;;5100325;28;19908;-69
2021/12/24 02:12:54;;;;;;;;;;;11.20;56.30;;;;;;5100252;28;19908;-69
2021/12/24 02:28:47;;;;;;;;;;;11.20;56.30;;;;;;5100104;28;19927;-70
2021/12/24 02:31:17;;;;;;;;;;;11.20;56.30;;;;;;5100031;28;19943;-69
2021/12/24 02:33:43;;;;;;;;;;;11.20;56.30;;;;;;5099986;28;19951;-69
2021/12/24 02:36:09;;;;;;;;;;;11.20;56.30;;;;;;5081897;28;19903;-69
2021/12/24 02:38:35;;;;;;;;;;;11.20;56.20;;;;;;5099938;28;19908;-69
2021/12/24 02:41:02;;;;;;;;;;;11.20;56.30;;;;;;5099893;28;20069;-69
2021/12/24 02:43:28;;;;;;;;;;;11.20;56.30;;;;;;5099916;28;19981;-70
2021/12/24 02:45:57;;;;;;;;;;;11.20;56.30;;;;;;5099747;28;19911;-70
2021/12/24 02:56:18;;;;;;;;;;;11.20;56.30;;;;;;5099754;28;19915;-71
2021/12/24 02:58:45;;;;;;;;;;;11.10;56.30;;;;;;5099672;28;19908;-71
2021/12/24 03:01:12;;;;;;;;;;;11.10;56.30;;;;;;5099703;28;19900;-69
2021/12/24 03:03:38;;;;;;;;;;;11.20;56.40;;;;;;5099717;28;19915;-69
2021/12/24 03:06:05;;;;;;;;;;;11.20;56.40;;;;;;5101218;28;19920;-69
2021/12/24 03:08:30;;;;;;;;;;;11.20;56.30;;;;;;5103601;28;19928;-69
2021/12/24 03:10:58;;;;;;;;;;;11.20;56.20;;;;;;5103906;28;20201;-70
2021/12/24 03:13:24;;;;;;;;;;;11.20;56.20;;;;;;5085241;28;20159;-69
2021/12/24 03:15:51;;;;;;;;;;;11.20;56.20;;;;;;5103468;28;19915;-69
2021/12/24 03:18:24;;;;;;;;;;;11.20;56.30;;;;;;5103515;28;19939;-70
2021/12/24 03:20:57;;;;;;;;;;;11.10;56.30;;;;;;5085207;28;20374;-69
2021/12/24 03:23:34;;;;;;;;;;;11.20;56.30;;;;;;5103379;28;19915;-69
2021/12/24 03:26:00;;;;;;;;;;;11.20;56.30;;;;;;5103173;28;19914;-71
2021/12/24 03:28:26;;;;;;;;;;;11.10;56.30;;;;;;5103265;28;19979;-70
2021/12/24 03:30:51;;;;;;;;;;;11.20;56.30;;;;;;5103142;28;19966;-70
2021/12/24 03:33:17;;;;;;;;;;;11.20;56.30;;;;;;5103141;28;19908;-71
2021/12/24 03:35:43;;;;;;;;;;;11.10;56.30;;;;;;5103103;28;20247;-70
2021/12/24 03:38:08;;;;;;;;;;;11.10;56.30;;;;;;5103054;28;19908;-71
2021/12/24 03:40:34;;;;;;;;;;;11.10;56.40;;;;;;5102990;28;19939;-71
2021/12/24 03:43:00;;;;;;;;;;;11.10;56.40;;;;;;5103039;28;19908;-70
2021/12/24 03:45:41;;;;;;;;;;;11.10;56.40;;;;;;5102884;28;19914;-70
2021/12/24 03:48:16;;;;;;;;;;;11.10;56.50;;;;;;5102835;28;19908;-69
2021/12/24 03:50:52;;;;;;;;;;;11.20;56.40;;;;;;5102834;28;19908;-70
2021/12/24 03:56:02;;;;;;;;;;;11.20;56.20;;;;;;5103116;28;19919;-69
2021/12/24 03:58:28;;;;;;;;;;;11.10;56.20;;;;;;5102602;28;19935;-69
2021/12/24 04:00:53;;;;;;;;;;;11.10;56.30;;;;;;5084434;28;19908;-69
2021/12/24 04:03:19;;;;;;;;;;;11.10;56.30;;;;;;5102481;28;20274;-70
2021/12/24 04:05:46;;;;;;;;;;;11.10;56.30;;;;;;5102305;28;19915;-70
2021/12/24 04:08:12;;;;;;;;;;;11.20;56.30;;;;;;5084289;28;19978;-69
2021/12/24 04:10:40;;;;;;;;;;;11.20;56.30;;;;;;5102405;28;19908;-69
2021/12/24 04:13:07;;;;;;;;;;;11.20;56.20;;;;;;5102313;28;19907;-70
2021/12/24 04:15:33;;;;;;;;;;;11.20;56.30;;;;;;5102221;28;20434;-69
2021/12/24 04:17:59;;;;;;;;;;;11.20;56.30;;;;;;5101083;28;19950;-69
2021/12/24 04:25:53;;;;;;;;;;;11.10;56.40;;;;;;5102036;28;20219;-70
2021/12/24 04:28:19;;;;;;;;;;;11.10;56.30;;;;;;5102050;28;19908;-70
2021/12/24 04:30:51;;;;;;;;;;;11.20;56.30;;;;;;5101918;28;19954;-71
2021/12/24 04:33:24;;;;;;;;;;;11.20;56.20;;;;;;5101887;28;20168;-69
2021/12/24 04:39:06;;;;;;;;;;;11.10;56.20;;;;;;5101825;28;19979;-71
2021/12/24 05:03:42;;;;;;;;;;;11.10;56.40;;;;;;5101319;28;19969;-68
2021/12/24 05:06:28;;;;;;;;;;;11.10;56.40;;;;;;5101036;28;19920;-71
2021/12/24 05:08:57;;;;;;;;;;;11.10;56.30;;;;;;5101211;28;19908;-71
2021/12/24 05:11:23;;;;;;;;;;;11.10;56.40;;;;;;5101123;28;20217;-70
2021/12/24 05:13:50;;;;;;;;;;;11.10;56.40;;;;;;5101072;28;20334;-70
2021/12/24 05:21:35;;;;;;;;;;;11.20;56.20;;;;;;5101254;28;19967;-69
2021/12/24 05:24:05;;;;;;;;;;;11.10;56.20;;;;;;5100842;28;19900;-69
2021/12/24 05:26:31;;;;;;;;;;;11.10;56.30;;;;;;5100759;28;20199;-68
2021/12/24 05:28:58;;;;;;;;;;;11.10;56.40;;;;;;5100565;28;19915;-69
2021/12/24 05:31:24;;;;;;;;;;;11.10;56.40;;;;;;5100674;28;20123;-70
2021/12/24 05:33:50;;;;;;;;;;;11.10;56.30;;;;;;5100641;28;19907;-70
2021/12/24 05:36:15;;;;;;;;;;;11.10;56.20;;;;;;5100697;28;19965;-69
2021/12/24 05:38:41;;;;;;;;;;;11.10;56.20;;;;;;5100634;28;20206;-69
2021/12/24 05:41:07;;;;;;;;;;;11.10;56.30;;;;;;5100660;28;19971;-69
2021/12/24 05:43:33;;;;;;;;;;;11.20;56.30;;;;;;5100549;28;19938;-69
2021/12/24 05:45:58;;;;;;;;;;;11.10;56.30;;;;;;5100396;28;20107;-69
2021/12/24 05:48:24;;;;;;;;;;;11.10;56.30;;;;;;5100392;28;19979;-69
2021/12/24 05:50:50;;;;;;;;;;;11.10;56.40;;;;;;5100351;28;20091;-70
2021/12/24 05:53:15;;;;;;;;;;;11.10;56.30;;;;;;5100359;28;19904;-70
2021/12/24 05:55:41;;;;;;;;;;;11.20;56.30;;;;;;5100311;28;19911;-69
2021/12/24 05:58:08;;;;;;;;;;;11.10;56.30;;;;;;5100383;28;19908;-70
2021/12/24 06:00:38;;;;;;;;;;;11.10;56.30;;;;;;5100250;28;19971;-69
2021/12/24 06:03:05;;;;;;;;;;;11.10;56.30;;;;;;5081971;28;19900;-70
2021/12/24 06:05:31;;;;;;;;;;;11.10;56.90;;;;;;5099875;28;19919;-70
2021/12/24 06:07:56;;;;;;;;;;;11.10;56.30;;;;;;5100129;28;19907;-71
2021/12/24 06:10:22;;;;;;;;;;;11.10;56.40;;;;;;5100086;28;19908;-70
2021/12/24 06:12:48;;;;;;;;;;;11.00;56.40;;;;;;5100273;28;19912;-70
2021/12/24 06:15:16;;;;;;;;;;;11.10;56.40;;;;;;5100060;28;19908;-70
2021/12/24 06:17:41;;;;;;;;;;;11.10;56.30;;;;;;5081788;28;19908;-70
2021/12/24 06:20:08;;;;;;;;;;;11.10;56.20;;;;;;5099958;28;19915;-70
2021/12/24 06:22:34;;;;;;;;;;;11.10;56.30;;;;;;5099898;28;20250;-70
2021/12/24 06:24:59;;;;;;;;;;;11.10;56.20;;;;;;5081617;28;19908;-70
2021/12/24 06:27:25;;;;;;;;;;;11.10;56.20;;;;;;5099853;28;19900;-70
2021/12/24 06:29:51;;;;;;;;;;;11.10;56.20;;;;;;5099775;28;20095;-70
2021/12/24 06:32:16;;;;;;;;;;;11.10;56.20;;;;;;5081712;28;19911;-70
2021/12/24 06:34:42;;;;;;;;;;;11.10;56.30;;;;;;5099776;28;19977;-69
2021/12/24 06:37:08;;;;;;;;;;;11.00;56.40;;;;;;5099732;28;19943;-70
2021/12/24 06:39:34;;;;;;;;;;;11.10;56.40;;;;;;5099795;28;20425;-70
2021/12/24 06:42:00;;;;;;;;;;;11.10;56.30;;;;;;5103223;28;19900;-71
2021/12/24 06:44:26;;;;;;;;;;;11.10;56.40;;;;;;5103915;28;19903;-70
2021/12/24 06:46:51;;;;;;;;;;;11.10;56.40;;;;;;5103770;28;19912;-70
2021/12/24 06:49:17;;;;;;;;;;;11.10;56.30;;;;;;5103912;28;19984;-69
2021/12/24 06:51:42;;;;;;;;;;;11.00;56.40;;;;;;5085615;28;19908;-70
2021/12/24 06:54:10;;;;;;;;;;;11.00;56.40;;;;;;5085568;28;20112;-70
2021/12/24 06:56:36;;;;;;;;;;;11.10;56.40;;;;;;5103731;28;19907;-69
2021/12/24 06:59:02;;;;;;;;;;;11.10;56.30;;;;;;5103602;28;19970;-70
2021/12/24 07:01:27;;;;;;;;;;;11.10;56.20;;;;;;5103631;28;19908;-70
2021/12/24 07:03:53;;;;;;;;;;;11.10;56.20;;;;;;5103506;28;19908;-70
2021/12/24 07:06:19;;;;;;;;;;;11.10;56.30;;;;;;5085093;28;20271;-70
2021/12/24 07:08:44;;;;;;;;;;;11.10;56.30;;;;;;5103446;28;19908;-70
2021/12/24 07:11:10;;;;;;;;;;;11.10;56.30;;;;;;5103465;28;19986;-71
2021/12/24 07:13:35;;;;;;;;;;;11.10;56.20;;;;;;5103418;28;19907;-70
2021/12/24 07:16:01;;;;;;;;;;;11.10;56.30;;;;;;5103245;28;20358;-70
2021/12/24 07:18:27;;;;;;;;;;;11.10;56.20;;;;;;5103296;28;20354;-70
2021/12/24 07:20:52;;;;;;;;;;;11.10;56.30;;;;;;5103214;28;19908;-70
2021/12/24 07:23:18;;;;;;;;;;;11.10;56.30;;;;;;5103188;28;20078;-71
2021/12/24 07:25:45;;;;;;;;;;;11.10;56.30;;;;;;5103074;28;19907;-70
2021/12/24 07:28:11;;;;;;;;;;;11.10;56.30;;;;;;5103164;28;20302;-70
2021/12/24 07:30:37;;;;;;;;;;;11.10;56.30;;;;;;5103212;28;19908;-70
2021/12/24 07:33:03;;;;;;;;;;;11.00;56.40;;;;;;5103062;28;19915;-69
2021/12/24 07:35:28;;;;;;;;;;;11.10;56.30;;;;;;5103004;28;19908;-70
2021/12/24 07:37:54;;;;;;;;;;;11.10;56.30;;;;;;5102995;28;20196;-71
2021/12/24 07:40:19;;;;;;;;;;;11.10;56.40;;;;;;5102892;28;19915;-70
2021/12/24 07:42:46;;;;;;;;;;;11.10;56.40;;;;;;5102879;28;19900;-70
2021/12/24 07:45:13;;;;;;;;;;;11.10;56.30;;;;;;5102701;28;19912;-70
2021/12/24 07:47:42;;;;;;;;;;;11.10;56.30;;;;;;5102754;28;19911;-70
2021/12/24 07:52:54;;;;;;;;;;;11.10;56.30;;;;;;5102890;28;19908;-70
2021/12/24 07:55:21;;;;;;;;;;;11.10;56.30;;;;;;5102590;28;19966;-69
2021/12/24 07:57:50;;;;;;;;;;;11.10;56.30;;;;;;5102594;28;19908;-69
2021/12/24 08:00:16;;;;;;;;;;;11.10;56.30;;;;;;5102532;28;19963;-70
2021/12/24 08:02:42;;;;;;;;;;;11.10;56.30;;;;;;5102449;28;19935;-70
2021/12/24 08:05:08;;;;;;;;;;;11.10;56.30;;;;;;5102259;28;19920;-69
2021/12/24 08:07:34;;;;;;;;;;;11.10;56.30;;;;;;5102369;28;20077;-69
2021/12/24 08:10:01;;;;;;;;;;;11.10;56.30;;;;;;5102201;28;20315;-70
2021/12/24 08:12:27;;;;;;;;;;;11.10;56.30;;;;;;5102346;28;19950;-70
2021/12/24 08:14:52;;;;;;;;;;;11.10;56.40;;;;;;5102270;28;19908;-69
2021/12/24 08:17:18;;;;;;;;;;;11.10;56.40;;;;;;5102211;28;19930;-70
2021/12/24 08:19:44;;;;;;;;;;;11.10;56.40;;;;;;5102126;28;19908;-70
2021/12/24 08:22:10;;;;;;;;;;;11.10;56.40;;;;;;5102131;28;19974;-70
2021/12/24 08:24:36;;;;;;;;;;;11.10;56.30;;;;;;5102033;28;20215;-70
2021/12/24 08:27:02;;;;;;;;;;;11.10;56.20;;;;;;5101826;28;19912;-70
2021/12/24 08:29:28;;;;;;;;;;;11.20;56.20;;;;;;5101904;28;19916;-70
2021/12/24 08:31:53;;;;;;;;;;;11.20;56.20;;;;;;5101911;28;19947;-70
2021/12/24 08:34:19;;;;;;;;;;;11.20;56.20;;;;;;5101800;28;19915;-70
2021/12/24 08:36:46;;;;;;;;;;;11.20;56.20;;;;;;5101770;28;19904;-70
2021/12/24 08:39:12;;;;;;;;;;;11.20;56.20;;;;;;5101746;28;19908;-70
2021/12/24 08:41:38;;;;;;;;;;;11.20;56.20;;;;;;5101729;28;19915;-70
2021/12/24 08:44:04;;;;;;;;;;;11.10;56.20;;;;;;5101696;28;19900;-70
2021/12/24 08:46:29;;;;;;;;;;;11.10;56.20;;;;;;5101519;28;20200;-70
2021/12/24 08:48:55;;;;;;;;;;;11.10;56.20;;;;;;5083368;28;20219;-70
2021/12/24 08:51:21;;;;;;;;;;;11.20;56.20;;;;;;5101495;28;19904;-70
2021/12/24 08:53:47;;;;;;;;;;;11.20;56.20;;;;;;5083371;28;19912;-71
2021/12/24 08:56:12;;;;;;;;;;;11.20;56.20;;;;;;5101356;28;19987;-70
2021/12/24 08:58:38;;;;;;;;;;;11.10;56.10;;;;;;5101360;28;19908;-69
2021/12/24 09:01:05;;;;;;;;;;;11.20;56.20;;;;;;5101384;28;19915;-70
2021/12/24 09:03:30;;;;;;;;;;;11.20;56.30;;;;;;5082636;28;20152;-70
2021/12/24 09:05:56;;;;;;;;;;;11.10;56.20;;;;;;5101081;28;19942;-70
2021/12/24 09:08:21;;;;;;;;;;;11.20;56.20;;;;;;5101188;28;19935;-70
2021/12/24 09:10:47;;;;;;;;;;;11.20;56.20;;;;;;5083022;28;19975;-70
2021/12/24 09:13:13;;;;;;;;;;;11.20;56.10;;;;;;5101229;28;19907;-70
2021/12/24 09:15:40;;;;;;;;;;;11.20;56.00;;;;;;5101003;28;19900;-70
2021/12/24 09:18:05;;;;;;;;;;;11.20;56.00;;;;;;5101083;28;19974;-70
2021/12/24 09:20:36;;;;;;;;;;;11.20;56.00;;;;;;5100991;28;19935;-70
2021/12/24 09:23:02;;;;;;;;;;;11.20;56.00;;;;;;5100928;28;19908;-70
2021/12/24 09:25:29;;;;;;;;;;;11.20;55.90;;;;;;5100848;28;19911;-70
2021/12/24 09:27:55;;;;;;;;;;;11.20;56.00;;;;;;5100870;28;20223;-70
2021/12/24 09:30:20;;;;;;;;;;;11.20;56.00;;;;;;5082614;28;19900;-70
2021/12/24 09:32:46;;;;;;;;;;;11.20;56.10;;;;;;5100727;28;19951;-70
2021/12/24 09:35:12;;;;;;;;;;;11.20;56.10;;;;;;5100704;28;19908;-70
2021/12/24 09:37:39;;;;;;;;;;;11.20;56.10;;;;;;5100739;28;19908;-70
2021/12/24 09:40:06;;;;;;;;;;;11.20;56.10;;;;;;5100596;28;19907;-70
2021/12/24 09:42:32;;;;;;;;;;;11.20;56.10;;;;;;5100484;28;20403;-71
2021/12/24 09:44:58;;;;;;;;;;;11.20;56.00;;;;;;5100461;28;19987;-70
2021/12/24 09:47:24;;;;;;;;;;;11.30;56.00;;;;;;5100477;28;19907;-70
2021/12/24 09:49:51;;;;;;;;;;;11.30;56.00;;;;;;5100405;28;20107;-70
2021/12/24 09:52:17;;;;;;;;;;;11.30;56.00;;;;;;5082263;28;20042;-70
2021/12/24 09:54:44;;;;;;;;;;;11.20;56.00;;;;;;5100437;28;19908;-69
2021/12/24 09:57:09;;;;;;;;;;;11.20;56.00;;;;;;5100303;28;19908;-70
2021/12/24 09:59:36;;;;;;;;;;;11.30;56.00;;;;;;5100342;28;20211;-70
2021/12/24 10:02:02;;;;;;;;;;;11.30;55.90;;;;;;5100155;28;19908;-69
2021/12/24 10:04:31;;;;;;;;;;;11.30;55.90;;;;;;5100088;28;19939;-70
2021/12/24 10:07:03;;;;;;;;;;;11.30;55.90;;;;;;5100182;28;19915;-70
2021/12/24 10:09:33;;;;;;;;;;;11.20;56.50;;;;;;5100217;28;19908;-70
2021/12/24 10:12:00;;;;;;;;;;;11.20;55.90;;;;;;5100124;28;19930;-70
2021/12/24 10:14:31;;;;;;;;;;;11.20;56.00;;;;;;5099784;28;19918;-70
2021/12/24 10:16:56;;;;;;;;;;;11.20;56.10;;;;;;5081371;28;19908;-70
2021/12/24 10:19:22;;;;;;;;;;;11.20;56.00;;;;;;5099895;28;19938;-70
2021/12/24 10:21:56;;;;;;;;;;;11.30;56.00;;;;;;5100018;28;19911;-68
2021/12/24 10:24:23;;;;;;;;;;;11.30;56.00;;;;;;5099898;28;19940;-69
2021/12/24 10:26:51;;;;;;;;;;;11.30;55.90;;;;;;5099849;28;19915;-69
2021/12/24 10:29:18;;;;;;;;;;;11.30;56.00;;;;;;5099873;28;19908;-69
2021/12/24 10:31:53;;;;;;;;;;;11.30;56.00;;;;;;5099865;28;19908;-69
2021/12/24 10:34:33;;;;;;;;;;;11.30;56.00;;;;;;5099846;28;19984;-69
2021/12/24 10:37:00;;;;;;;;;;;11.30;56.00;;;;;;5099824;28;19911;-70
2021/12/24 10:39:34;;;;;;;;;;;11.30;56.00;;;;;;5099879;28;19904;-69
2021/12/24 10:42:01;;;;;;;;;;;11.30;55.90;;;;;;5099762;28;19908;-69
2021/12/24 10:44:30;;;;;;;;;;;11.30;55.90;;;;;;5099868;28;20203;-70
2021/12/24 10:47:07;;;;;;;;;;;11.30;55.90;;;;;;5099691;28;19904;-69
2021/12/24 10:49:50;;;;;;;;;;;11.30;56.00;;;;;;5099742;28;19939;-70
2021/12/24 10:54:51;;;;;;;;;;;11.20;56.00;;;;;;5099870;28;20192;-70
2021/12/24 10:57:18;;;;;;;;;;;11.30;56.10;;;;;;5099659;28;19908;-69
2021/12/24 10:59:45;;;;;;;;;;;11.30;56.10;;;;;;5099587;28;19900;-70
2021/12/24 11:02:11;;;;;;;;;;;11.30;56.00;;;;;;5099535;28;19907;-70
2021/12/24 11:04:37;;;;;;;;;;;11.30;55.90;;;;;;5099433;28;19937;-70
2021/12/24 11:07:05;;;;;;;;;;;11.30;55.90;;;;;;5099530;28;19947;-69
2021/12/24 11:09:30;;;;;;;;;;;11.30;55.90;;;;;;5099480;28;19935;-70
2021/12/24 11:11:58;;;;;;;;;;;11.30;55.90;;;;;;5099562;28;19907;-70
2021/12/24 11:14:25;;;;;;;;;;;11.30;55.90;;;;;;5081341;28;20126;-70
2021/12/24 11:16:50;;;;;;;;;;;11.30;56.00;;;;;;5099486;28;20230;-70
2021/12/24 11:19:16;;;;;;;;;;;11.30;56.00;;;;;;5099480;28;19908;-70
2021/12/24 11:21:42;;;;;;;;;;;11.30;56.00;;;;;;5099397;28;19971;-70
2021/12/24 11:24:07;;;;;;;;;;;11.30;56.00;;;;;;5099427;28;19949;-70
2021/12/24 11:26:39;;;;;;;;;;;11.30;56.00;;;;;;5100158;28;19919;-70
2021/12/24 11:29:05;;;;;;;;;;;11.30;56.00;;;;;;5084990;28;19975;-70
2021/12/24 11:31:32;;;;;;;;;;;11.30;56.00;;;;;;5103176;28;19907;-70
2021/12/24 11:33:58;;;;;;;;;;;11.30;56.00;;;;;;5084877;28;19974;-70
2021/12/24 11:36:25;;;;;;;;;;;11.20;56.00;;;;;;5103041;28;20155;-70
2021/12/24 11:38:55;;;;;;;;;;;11.30;56.10;;;;;;5102921;28;19993;-70
2021/12/24 11:41:25;;;;;;;;;;;11.30;56.10;;;;;;5102928;28;20073;-70
2021/12/24 11:43:51;;;;;;;;;;;11.30;56.00;;;;;;5102898;28;19900;-70
2021/12/24 11:46:17;;;;;;;;;;;11.30;56.00;;;;;;5102762;28;19911;-70
2021/12/24 11:48:45;;;;;;;;;;;11.30;55.90;;;;;;5102790;28;19930;-70
2021/12/24 11:51:14;;;;;;;;;;;11.30;56.00;;;;;;5102701;28;19927;-70
2021/12/24 11:53:41;;;;;;;;;;;11.30;55.90;;;;;;5084428;28;19907;-71
2021/12/24 11:56:08;;;;;;;;;;;11.30;55.90;;;;;;5102659;28;19908;-69
2021/12/24 11:58:41;;;;;;;;;;;11.30;55.90;;;;;;5102636;28;19915;-70
2021/12/24 12:01:07;;;;;;;;;;;11.30;56.00;;;;;;5102574;28;19908;-70
2021/12/24 12:03:35;;;;;;;;;;;11.30;56.00;;;;;;5102473;28;19997;-71
2021/12/24 12:06:04;;;;;;;;;;;11.30;55.90;;;;;;5102193;28;20391;-71
2021/12/24 12:08:33;;;;;;;;;;;11.30;55.90;;;;;;5102401;28;20193;-70
2021/12/24 12:11:00;;;;;;;;;;;11.30;55.90;;;;;;5102424;28;19915;-70
2021/12/24 12:13:44;;;;;;;;;;;11.30;56.00;;;;;;5102369;28;19934;-70
2021/12/24 12:16:11;;;;;;;;;;;11.30;56.10;;;;;;5084189;28;20120;-70
2021/12/24 12:18:46;;;;;;;;;;;11.30;56.00;;;;;;5102306;28;19915;-70
2021/12/24 12:21:14;;;;;;;;;;;11.30;56.00;;;;;;5102147;28;20142;-70
2021/12/24 12:24:56;;;;;;;;;;;11.30;56.00;;;;;;5102131;28;19900;-70
2021/12/24 12:26:32;;;;;;;;;;;11.30;56.10;;;;;;5101322;28;20158;-69
2021/12/24 12:29:16;;;;;;;;;;;11.30;56.00;;;;;;5102034;28;19915;-69
2021/12/24 12:31:42;;;;;;;;;;;11.40;56.00;;;;;;5102013;28;20026;-70
2021/12/24 12:34:26;;;;;;;;;;;11.40;55.90;;;;;;5101924;28;20204;-70
2021/12/24 12:36:52;;;;;;;;;;;11.40;55.90;;;;;;5101840;28;19908;-69
2021/12/24 12:39:26;;;;;;;;;;;11.40;55.90;;;;;;5100541;28;19915;-69
2021/12/24 12:41:52;;;;;;;;;;;11.30;55.90;;;;;;5101790;28;19908;-70
2021/12/24 12:44:19;;;;;;;;;;;11.30;56.00;;;;;;5101780;28;20295;-70
2021/12/24 12:46:47;;;;;;;;;;;11.30;56.00;;;;;;5101571;28;19912;-70
2021/12/24 12:49:19;;;;;;;;;;;11.30;56.00;;;;;;5101706;28;19903;-70
2021/12/24 12:51:58;;;;;;;;;;;11.30;56.00;;;;;;5101655;28;19899;-70
2021/12/24 12:54:28;;;;;;;;;;;11.30;56.00;;;;;;5101594;28;19908;-69
2021/12/24 12:57:09;;;;;;;;;;;11.30;56.00;;;;;;5101541;28;19904;-69
2021/12/24 12:59:34;;;;;;;;;;;11.30;56.00;;;;;;5083203;28;20100;-70
2021/12/24 13:02:01;;;;;;;;;;;11.40;56.00;;;;;;5101424;28;19900;-69
2021/12/24 13:04:27;;;;;;;;;;;11.40;56.00;;;;;;5101237;28;19920;-70
2021/12/24 13:06:54;;;;;;;;;;;11.40;55.90;;;;;;5101274;28;19908;-70
2021/12/24 13:09:22;;;;;;;;;;;11.30;55.90;;;;;;5101285;28;19915;-69
2021/12/24 13:11:52;;;;;;;;;;;11.30;56.00;;;;;;5101295;28;19908;-69
2021/12/24 13:14:18;;;;;;;;;;;11.30;56.00;;;;;;5101222;28;19908;-71
2021/12/24 13:16:48;;;;;;;;;;;11.30;56.00;;;;;;5101156;28;19911;-69
2021/12/24 13:24:36;;;;;;;;;;;11.40;56.00;;;;;;5101070;28;19930;-69
2021/12/24 13:27:02;;;;;;;;;;;11.30;56.00;;;;;;5100936;28;20200;-69
2021/12/24 13:29:28;;;;;;;;;;;11.30;56.00;;;;;;5100906;28;19915;-69
2021/12/24 13:31:54;;;;;;;;;;;11.30;56.10;;;;;;5100917;28;19944;-70
2021/12/24 13:34:22;;;;;;;;;;;11.30;56.10;;;;;;5100848;28;19925;-69
2021/12/24 13:36:48;;;;;;;;;;;11.30;56.10;;;;;;5100835;28;20567;-70
2021/12/24 13:39:23;;;;;;;;;;;11.30;56.10;;;;;;5100755;28;19930;-70
2021/12/24 13:41:58;;;;;;;;;;;11.30;56.10;;;;;;5100783;28;19914;-70
2021/12/24 13:44:26;;;;;;;;;;;11.30;56.00;;;;;;5100727;28;19900;-70
2021/12/24 13:47:03;;;;;;;;;;;11.40;56.00;;;;;;5100570;28;19951;-70
2021/12/24 13:50:08;;;;;;;;;;;11.30;56.00;;;;;;5100457;28;19979;-70
2021/12/24 13:55:22;;;;;;;;;;;11.30;56.00;;;;;;5100810;28;20163;-70
2021/12/24 13:57:53;;;;;;;;;;;11.30;56.10;;;;;;5082321;28;19908;-69
2021/12/24 14:00:19;;;;;;;;;;;11.30;56.10;;;;;;5100412;28;19966;-69
2021/12/24 14:02:52;;;;;;;;;;;11.30;56.10;;;;;;5100494;28;19950;-70
2021/12/24 14:05:19;;;;;;;;;;;11.30;56.10;;;;;;5100201;28;20212;-69
2021/12/24 14:07:46;;;;;;;;;;;11.30;56.00;;;;;;5100323;28;19914;-70
2021/12/24 14:10:22;;;;;;;;;;;11.30;56.00;;;;;;5082079;28;19923;-70
2021/12/24 14:12:48;;;;;;;;;;;11.30;56.00;;;;;;5100252;28;19915;-69
2021/12/24 14:15:15;;;;;;;;;;;11.30;56.10;;;;;;5082116;28;20129;-70
2021/12/24 14:18:21;;;;;;;;;;;11.30;56.20;;;;;;5100182;28;19939;-69
2021/12/24 14:23:34;;;;;;;;;;;11.30;56.20;;;;;;4998158;28;19913;-70
2021/12/24 14:26:01;;;;;;;;;;;11.30;56.20;;;;;;5078632;28;19969;-69
2021/12/24 14:28:26;;;;;;;;;;;11.30;56.10;;;;;;5100130;28;19912;-70
2021/12/24 14:30:59;;;;;;;;;;;11.30;56.10;;;;;;5100071;28;19994;-70
2021/12/24 14:33:25;;;;;;;;;;;11.30;56.10;;;;;;5100016;28;19900;-70
2021/12/24 14:35:52;;;;;;;;;;;11.30;56.10;;;;;;5099979;28;19969;-70
2021/12/24 14:38:22;;;;;;;;;;;11.30;56.10;;;;;;5099994;28;19908;-70
2021/12/24 14:40:54;;;;;;;;;;;11.30;56.20;;;;;;5099915;28;19909;-70
2021/12/24 14:43:20;;;;;;;;;;;11.30;56.10;;;;;;5100043;28;19967;-70
2021/12/24 14:45:47;;;;;;;;;;;11.30;56.10;;;;;;5099852;28;19908;-70
2021/12/24 14:48:19;;;;;;;;;;;11.30;56.10;;;;;;5099855;28;19915;-70
2021/12/24 14:50:48;;;;;;;;;;;11.30;56.20;;;;;;5099916;28;19900;-69
2021/12/24 14:53:16;;;;;;;;;;;11.30;56.10;;;;;;5099837;28;20249;-70
2021/12/24 14:55:43;;;;;;;;;;;11.30;56.10;;;;;;5099833;28;19998;-70
2021/12/24 14:58:09;;;;;;;;;;;11.30;56.20;;;;;;5099878;28;19914;-70
2021/12/24 15:00:35;;;;;;;;;;;11.30;56.20;;;;;;5099833;28;19900;-70
2021/12/24 15:03:08;;;;;;;;;;;11.30;56.30;;;;;;5103169;28;19915;-70
2021/12/24 15:05:38;;;;;;;;;;;11.30;56.20;;;;;;5103828;28;19980;-69
2021/12/24 15:08:17;;;;;;;;;;;11.30;56.20;;;;;;5104066;28;19937;-70
2021/12/24 15:11:05;;;;;;;;;;;11.30;56.20;;;;;;5103672;28;19908;-69
2021/12/24 15:13:31;;;;;;;;;;;11.30;56.20;;;;;;5085508;28;19904;-70
2021/12/24 15:15:58;;;;;;;;;;;11.30;56.10;;;;;;5103648;28;19934;-69
2021/12/24 15:18:24;;;;;;;;;;;11.30;56.10;;;;;;5103491;28;20159;-70
2021/12/24 15:20:50;;;;;;;;;;;11.30;56.10;;;;;;5103507;28;20275;-70
2021/12/24 15:23:15;;;;;;;;;;;11.30;56.20;;;;;;5103527;28;20175;-70
2021/12/24 15:25:45;;;;;;;;;;;11.30;56.20;;;;;;5103390;28;19912;-70
2021/12/24 15:28:12;;;;;;;;;;;11.30;56.20;;;;;;5103414;28;19899;-70
2021/12/24 15:30:39;;;;;;;;;;;11.30;56.20;;;;;;5103398;28;19989;-69
2021/12/24 15:33:05;;;;;;;;;;;11.30;56.20;;;;;;5103402;28;20200;-69
2021/12/24 15:35:32;;;;;;;;;;;11.30;56.20;;;;;;5103241;28;19907;-69
2021/12/24 15:38:01;;;;;;;;;;;11.30;56.20;;;;;;5103260;28;19967;-70
2021/12/24 15:40:26;;;;;;;;;;;11.30;56.20;;;;;;5103244;28;19927;-70
2021/12/24 15:42:53;;;;;;;;;;;11.30;56.30;;;;;;5103140;28;19949;-70
2021/12/24 15:45:20;;;;;;;;;;;11.30;56.30;;;;;;5103039;28;19904;-70
2021/12/24 15:47:45;;;;;;;;;;;11.30;56.30;;;;;;5103052;28;19900;-69
2021/12/24 15:50:11;;;;;;;;;;;11.30;56.20;;;;;;5103003;28;19908;-70
2021/12/24 15:52:37;;;;;;;;;;;11.30;56.30;;;;;;5103072;28;19959;-69
2021/12/24 15:55:02;;;;;;;;;;;11.30;56.20;;;;;;5103079;28;19912;-69
2021/12/24 15:57:28;;;;;;;;;;;11.30;56.20;;;;;;5102865;28;19911;-69
2021/12/24 15:59:54;;;;;;;;;;;11.30;56.20;;;;;;5102855;28;20108;-70
2021/12/24 16:02:19;;;;;;;;;;;11.30;56.20;;;;;;5102806;28;19908;-70
2021/12/24 16:04:45;;;;;;;;;;;11.30;56.20;;;;;;5102611;28;19970;-69
2021/12/24 16:07:10;;;;;;;;;;;11.30;56.30;;;;;;5102614;28;20139;-70